CheckWX is a tool to help pilots better visualize weather data.  It is not intended as a substitute for an official pre-flight weather briefing.

18:03:37 UTC

KEKN METAR
Elkins-Randolph Co-Jennings Randolph Field Airport
Elkins, West Virginia, USA
Current

13 mins ago

KEKN 121751Z AUTO 29010G20KT -SN SCT020 BKN028 OVC036 M03/M08 A3010 RMK AO2 SLP212 P0000 60003 T10331083 10000 21033 52010 $
Observed
Nov-12 @ 17:51 UTC
Wind
  • 290° at 10 KTS
  • Gusting to 20 KTS
Visibility
Conditions
Light Snow
Cloud Levels
  • Scattered at 2,000' AGL
  • Broken at 2,800' AGL
  • Overcast at 3,600' AGL
Temperature
-3°C / 27°F
Dewpoint
-8°C / 18°F
Humidity
69%
Altimeter
30.1" Hg
Pressure
1019.32 hPa
Current Rain
0.01"
Previous

37 mins ago

KEKN 121727Z AUTO 29013G22KT -SN FEW014 BKN019 OVC033 M03/M07 A3010 RMK AO2 P0000 T10331072 $
Observed
Nov-12 @ 17:27 UTC
Wind
  • 290° at 13 KTS
  • Gusting to 22 KTS
Visibility
Conditions
Light Snow
Cloud Levels
  • Few at 1,400' AGL
  • Broken at 1,900' AGL
  • Overcast at 3,300' AGL
Temperature
-3°C / 27°F
Dewpoint
-7°C / 19°F
Humidity
74%
Altimeter
30.1" Hg
Pressure
1019.32 hPa
Current Rain
0.01"
Previous

57 mins ago

KEKN 121707Z AUTO 29016G24KT -SN OVC014 M03/M07 A3009 RMK AO2 P0000 T10331072 $
Observed
Nov-12 @ 17:07 UTC
Wind
  • 290° at 16 KTS
  • Gusting to 24 KTS
Visibility
Conditions
Light Snow
Cloud Levels
  • Overcast at 1,400' AGL
Temperature
-3°C / 27°F
Dewpoint
-7°C / 19°F
Humidity
74%
Altimeter
30.09" Hg
Pressure
1018.92 hPa
Current Rain
0.01"